ZKDAY ZUNC-ZLXY
Flight info
| Callsign | ZKDAY |
|---|---|
| Flight time | 1h 48m |
| Altitude | 13000 |
| Route | ISMAB MAKVI W81 AGULU NSH NSH1Z |
| Aircraft | C172/L-VGD/C |
Departure
| Time | 2026-05-05 14:19 |
|---|---|
| Airport | Nanchong Gaoping Airport (ZUNC) |
Arrival
| Time | 2026-05-05 16:07 |
|---|---|
| Airport | Xi'an Xianyang International Airport (ZLXY) |
| Time | Latitude | Longitude | Altitude | Speed | Heading |
|---|---|---|---|---|---|
| 2026-05-05 14:14 | 30.79145 | 106.16044 | 1154 ft | 0 kts | 325° |
| 2026-05-05 14:16 | 30.79148 | 106.16042 | 1154 ft | 5 kts | 336° |
| 2026-05-05 14:17 | 30.79163 | 106.15985 | 1153 ft | 11 kts | 267° |
| 2026-05-05 14:17 | 30.79133 | 106.15921 | 1156 ft | 1 kts | 299° |
| 2026-05-05 14:17 | 30.79158 | 106.15896 | 1159 ft | 4 kts | 317° |
| 2026-05-05 14:17 | 30.79184 | 106.15865 | 1157 ft | 10 kts | 313° |
| 2026-05-05 14:18 | 30.79237 | 106.15811 | 1160 ft | 9 kts | 321° |
| 2026-05-05 14:18 | 30.79279 | 106.15788 | 1159 ft | 6 kts | 56° |
| 2026-05-05 14:18 | 30.79379 | 106.15962 | 1155 ft | 57 kts | 58° |
| 2026-05-05 14:18 | 30.79650 | 106.16443 | 1280 ft | 79 kts | 55° |
| 2026-05-05 14:19 | 30.79989 | 106.16980 | 1527 ft | 82 kts | 52° |
| 2026-05-05 14:19 | 30.80353 | 106.17509 | 1784 ft | 86 kts | 52° |
| 2026-05-05 14:19 | 30.80831 | 106.17893 | 2014 ft | 95 kts | 20° |
| 2026-05-05 14:19 | 30.81517 | 106.17902 | 2231 ft | 101 kts | 3° |
| 2026-05-05 14:20 | 30.82225 | 106.17799 | 2481 ft | 104 kts | 360° |
| 2026-05-05 14:20 | 30.82942 | 106.17662 | 2721 ft | 105 kts | 359° |
| 2026-05-05 14:20 | 30.83694 | 106.17520 | 2888 ft | 113 kts | 359° |
| 2026-05-05 14:20 | 30.84482 | 106.17385 | 3053 ft | 116 kts | 360° |
| 2026-05-05 14:21 | 30.85293 | 106.17257 | 3222 ft | 119 kts | 360° |
| 2026-05-05 14:21 | 30.86120 | 106.17133 | 3379 ft | 120 kts | 360° |
| 2026-05-05 14:21 | 30.86955 | 106.17009 | 3560 ft | 121 kts | 359° |
| 2026-05-05 14:21 | 30.87789 | 106.16885 | 3756 ft | 121 kts | 359° |
| 2026-05-05 14:22 | 30.88629 | 106.16762 | 3947 ft | 122 kts | 359° |
| 2026-05-05 14:22 | 30.89483 | 106.16640 | 4152 ft | 125 kts | 359° |
| 2026-05-05 14:22 | 30.90356 | 106.16515 | 4351 ft | 127 kts | 358° |
| 2026-05-05 14:22 | 30.91241 | 106.16388 | 4548 ft | 129 kts | 358° |
| 2026-05-05 14:23 | 30.92140 | 106.16259 | 4741 ft | 130 kts | 357° |
| 2026-05-05 14:23 | 30.93040 | 106.16194 | 4931 ft | 128 kts | 14° |
| 2026-05-05 14:23 | 30.93821 | 106.16595 | 5130 ft | 122 kts | 43° |
| 2026-05-05 14:23 | 30.94552 | 106.17131 | 5296 ft | 128 kts | 40° |
| 2026-05-05 14:24 | 30.95335 | 106.17664 | 5449 ft | 132 kts | 38° |
| 2026-05-05 14:24 | 30.96144 | 106.18205 | 5592 ft | 135 kts | 38° |
| 2026-05-05 14:24 | 30.96964 | 106.18752 | 5742 ft | 137 kts | 38° |
| 2026-05-05 14:24 | 30.97791 | 106.19307 | 5885 ft | 138 kts | 39° |
| 2026-05-05 14:25 | 30.98626 | 106.19872 | 6033 ft | 139 kts | 41° |
| 2026-05-05 14:25 | 30.99459 | 106.20440 | 6171 ft | 139 kts | 40° |
| 2026-05-05 14:25 | 31.00296 | 106.21010 | 6308 ft | 139 kts | 39° |
| 2026-05-05 14:25 | 31.01135 | 106.21579 | 6437 ft | 140 kts | 38° |
| 2026-05-05 14:26 | 31.01973 | 106.22150 | 6592 ft | 139 kts | 37° |
| 2026-05-05 14:26 | 31.02800 | 106.22714 | 6762 ft | 137 kts | 37° |
| 2026-05-05 14:26 | 31.03622 | 106.23276 | 6924 ft | 136 kts | 37° |
| 2026-05-05 14:26 | 31.04437 | 106.23833 | 7083 ft | 135 kts | 37° |
| 2026-05-05 14:27 | 31.05243 | 106.24385 | 7244 ft | 134 kts | 36° |
| 2026-05-05 14:27 | 31.06045 | 106.24934 | 7408 ft | 133 kts | 36° |
| 2026-05-05 14:27 | 31.06839 | 106.25477 | 7572 ft | 133 kts | 36° |
| 2026-05-05 14:27 | 31.07622 | 106.26014 | 7739 ft | 132 kts | 35° |
| 2026-05-05 14:28 | 31.08425 | 106.26565 | 7903 ft | 132 kts | 34° |
| 2026-05-05 14:28 | 31.09215 | 106.27107 | 8076 ft | 132 kts | 34° |
| 2026-05-05 14:28 | 31.10003 | 106.27648 | 8250 ft | 131 kts | 33° |
| 2026-05-05 14:28 | 31.10780 | 106.28180 | 8422 ft | 131 kts | 33° |
| 2026-05-05 14:29 | 31.11577 | 106.28727 | 8596 ft | 131 kts | 32° |
| 2026-05-05 14:29 | 31.12350 | 106.29258 | 8775 ft | 131 kts | 32° |
| 2026-05-05 14:29 | 31.13146 | 106.29805 | 8896 ft | 135 kts | 33° |
| 2026-05-05 14:29 | 31.13959 | 106.30366 | 9032 ft | 137 kts | 32° |
| 2026-05-05 14:30 | 31.14799 | 106.30946 | 9166 ft | 140 kts | 32° |
| 2026-05-05 14:30 | 31.15627 | 106.31517 | 9289 ft | 141 kts | 31° |
| 2026-05-05 14:30 | 31.16475 | 106.32101 | 9423 ft | 142 kts | 30° |
| 2026-05-05 14:30 | 31.17331 | 106.32692 | 9544 ft | 142 kts | 30° |
| 2026-05-05 14:31 | 31.18184 | 106.33278 | 9667 ft | 142 kts | 30° |
| 2026-05-05 14:31 | 31.19035 | 106.33866 | 9770 ft | 142 kts | 32° |
| 2026-05-05 14:31 | 31.19879 | 106.34445 | 9878 ft | 140 kts | 30° |
| 2026-05-05 14:31 | 31.20722 | 106.35026 | 9987 ft | 140 kts | 29° |
| 2026-05-05 14:32 | 31.21562 | 106.35607 | 10106 ft | 140 kts | 29° |
| 2026-05-05 14:32 | 31.22395 | 106.36179 | 10225 ft | 139 kts | 29° |
| 2026-05-05 14:32 | 31.23229 | 106.36754 | 10347 ft | 139 kts | 28° |
| 2026-05-05 14:32 | 31.24060 | 106.37327 | 10467 ft | 139 kts | 29° |
| 2026-05-05 14:33 | 31.24892 | 106.37901 | 10581 ft | 138 kts | 30° |
| 2026-05-05 14:33 | 31.25720 | 106.38472 | 10706 ft | 138 kts | 29° |
| 2026-05-05 14:33 | 31.26548 | 106.39043 | 10825 ft | 138 kts | 30° |
| 2026-05-05 14:33 | 31.27374 | 106.39612 | 10948 ft | 138 kts | 30° |
| 2026-05-05 14:34 | 31.28200 | 106.40182 | 11075 ft | 138 kts | 31° |
| 2026-05-05 14:34 | 31.29027 | 106.40751 | 11197 ft | 138 kts | 31° |
| 2026-05-05 14:34 | 31.29853 | 106.41322 | 11308 ft | 138 kts | 31° |
| 2026-05-05 14:34 | 31.30676 | 106.41889 | 11428 ft | 137 kts | 31° |
| 2026-05-05 14:35 | 31.31494 | 106.42454 | 11539 ft | 136 kts | 31° |
| 2026-05-05 14:35 | 31.32306 | 106.43015 | 11663 ft | 135 kts | 31° |
| 2026-05-05 14:35 | 31.33124 | 106.43579 | 11750 ft | 138 kts | 31° |
| 2026-05-05 14:35 | 31.33958 | 106.44156 | 11827 ft | 141 kts | 31° |
| 2026-05-05 14:36 | 31.34804 | 106.44742 | 11888 ft | 141 kts | 31° |
| 2026-05-05 14:36 | 31.35653 | 106.45330 | 11971 ft | 143 kts | 31° |
| 2026-05-05 14:36 | 31.36511 | 106.45923 | 12051 ft | 144 kts | 31° |
| 2026-05-05 14:36 | 31.37374 | 106.46519 | 12126 ft | 144 kts | 31° |
| 2026-05-05 14:37 | 31.38239 | 106.47120 | 12196 ft | 145 kts | 31° |
| 2026-05-05 14:37 | 31.39104 | 106.47720 | 12269 ft | 145 kts | 31° |
| 2026-05-05 14:37 | 31.39970 | 106.48320 | 12347 ft | 145 kts | 31° |
| 2026-05-05 14:37 | 31.40838 | 106.48921 | 12432 ft | 145 kts | 31° |
| 2026-05-05 14:38 | 31.41711 | 106.49524 | 12518 ft | 146 kts | 31° |
| 2026-05-05 14:38 | 31.42588 | 106.50131 | 12588 ft | 147 kts | 31° |
| 2026-05-05 14:38 | 31.43466 | 106.50739 | 12663 ft | 146 kts | 31° |
| 2026-05-05 14:38 | 31.44339 | 106.51344 | 12733 ft | 145 kts | 31° |
| 2026-05-05 14:39 | 31.45207 | 106.51945 | 12811 ft | 145 kts | 31° |
| 2026-05-05 14:39 | 31.46073 | 106.52545 | 12881 ft | 144 kts | 31° |
| 2026-05-05 14:39 | 31.46938 | 106.53144 | 12956 ft | 144 kts | 31° |
| 2026-05-05 14:39 | 31.47800 | 106.53742 | 12998 ft | 146 kts | 31° |
| 2026-05-05 14:40 | 31.48687 | 106.54357 | 13007 ft | 150 kts | 31° |
| 2026-05-05 14:40 | 31.49590 | 106.54985 | 13008 ft | 152 kts | 31° |
| 2026-05-05 14:40 | 31.50503 | 106.55620 | 13009 ft | 153 kts | 31° |
| 2026-05-05 14:40 | 31.51423 | 106.56260 | 13014 ft | 155 kts | 31° |
| 2026-05-05 14:41 | 31.52353 | 106.56905 | 13007 ft | 156 kts | 31° |
| 2026-05-05 14:41 | 31.53288 | 106.57555 | 13026 ft | 157 kts | 32° |
| 2026-05-05 14:41 | 31.54230 | 106.58212 | 13018 ft | 158 kts | 31° |
| 2026-05-05 14:41 | 31.55176 | 106.58868 | 13014 ft | 158 kts | 31° |
| 2026-05-05 14:42 | 31.56115 | 106.59519 | 13014 ft | 157 kts | 31° |
| 2026-05-05 14:42 | 31.57057 | 106.60173 | 13012 ft | 157 kts | 31° |
| 2026-05-05 14:42 | 31.57999 | 106.60826 | 13019 ft | 157 kts | 31° |
| 2026-05-05 14:42 | 31.58942 | 106.61482 | 13017 ft | 157 kts | 31° |
| 2026-05-05 14:43 | 31.59883 | 106.62135 | 13019 ft | 157 kts | 31° |
| 2026-05-05 14:43 | 31.60824 | 106.62789 | 13013 ft | 157 kts | 31° |
| 2026-05-05 14:43 | 31.61446 | 106.63221 | 13018 ft | 157 kts | 32° |
| 2026-05-05 14:43 | 31.62385 | 106.63874 | 13026 ft | 157 kts | 31° |
| 2026-05-05 14:44 | 31.63326 | 106.64530 | 13025 ft | 158 kts | 31° |
| 2026-05-05 14:44 | 31.64270 | 106.65186 | 13025 ft | 158 kts | 31° |
| 2026-05-05 14:44 | 31.65215 | 106.65844 | 13021 ft | 158 kts | 32° |
| 2026-05-05 14:44 | 31.66154 | 106.66497 | 13021 ft | 157 kts | 31° |
| 2026-05-05 14:45 | 31.67093 | 106.67151 | 13018 ft | 156 kts | 31° |
| 2026-05-05 14:45 | 31.68028 | 106.67802 | 13023 ft | 156 kts | 31° |
| 2026-05-05 14:45 | 31.68962 | 106.68453 | 13027 ft | 156 kts | 31° |
| 2026-05-05 14:45 | 31.69900 | 106.69106 | 13021 ft | 156 kts | 31° |
| 2026-05-05 14:46 | 31.70828 | 106.69751 | 13022 ft | 156 kts | 31° |
| 2026-05-05 14:46 | 31.71756 | 106.70398 | 13022 ft | 155 kts | 31° |
| 2026-05-05 14:46 | 31.72698 | 106.71056 | 13031 ft | 156 kts | 32° |
| 2026-05-05 14:46 | 31.73616 | 106.71696 | 13033 ft | 156 kts | 32° |
| 2026-05-05 14:47 | 31.74547 | 106.72345 | 13023 ft | 155 kts | 33° |
| 2026-05-05 14:47 | 31.75473 | 106.72992 | 13030 ft | 155 kts | 31° |
| 2026-05-05 14:47 | 31.76396 | 106.73636 | 13034 ft | 155 kts | 31° |
| 2026-05-05 14:47 | 31.77325 | 106.74284 | 13044 ft | 156 kts | 31° |
| 2026-05-05 14:48 | 31.78255 | 106.74934 | 13028 ft | 155 kts | 31° |
| 2026-05-05 14:48 | 31.79181 | 106.75581 | 13033 ft | 155 kts | 31° |
| 2026-05-05 14:48 | 31.80111 | 106.76231 | 13029 ft | 155 kts | 31° |
| 2026-05-05 14:48 | 31.81040 | 106.76880 | 13035 ft | 156 kts | 31° |
| 2026-05-05 14:49 | 31.81973 | 106.77532 | 13037 ft | 156 kts | 31° |
| 2026-05-05 14:49 | 31.82902 | 106.78182 | 13039 ft | 155 kts | 31° |
| 2026-05-05 14:49 | 31.83833 | 106.78832 | 13047 ft | 156 kts | 31° |
| 2026-05-05 14:49 | 31.84766 | 106.79484 | 13035 ft | 156 kts | 31° |
| 2026-05-05 14:50 | 31.85695 | 106.80135 | 13042 ft | 155 kts | 31° |
| 2026-05-05 14:50 | 31.86626 | 106.80786 | 13038 ft | 156 kts | 31° |
| 2026-05-05 14:50 | 31.87556 | 106.81437 | 13046 ft | 156 kts | 31° |
| 2026-05-05 14:50 | 31.88488 | 106.82090 | 13037 ft | 156 kts | 31° |
| 2026-05-05 14:51 | 31.89416 | 106.82739 | 13037 ft | 155 kts | 31° |
| 2026-05-05 14:51 | 31.90348 | 106.83392 | 13046 ft | 156 kts | 31° |
| 2026-05-05 14:51 | 31.91281 | 106.84045 | 13043 ft | 156 kts | 31° |
| 2026-05-05 14:51 | 31.92218 | 106.84702 | 13022 ft | 157 kts | 31° |
| 2026-05-05 14:52 | 31.93155 | 106.85358 | 13018 ft | 157 kts | 31° |
| 2026-05-05 14:52 | 31.94089 | 106.86012 | 12999 ft | 155 kts | 31° |
| 2026-05-05 14:52 | 31.95007 | 106.86652 | 13004 ft | 153 kts | 31° |
| 2026-05-05 14:52 | 31.95922 | 106.87295 | 13018 ft | 154 kts | 31° |
| 2026-05-05 14:53 | 31.96842 | 106.87944 | 13011 ft | 154 kts | 31° |
| 2026-05-05 14:53 | 31.97766 | 106.88594 | 13017 ft | 155 kts | 31° |
| 2026-05-05 14:53 | 31.98694 | 106.89246 | 13017 ft | 156 kts | 31° |
| 2026-05-05 14:53 | 31.99628 | 106.89901 | 13000 ft | 156 kts | 31° |
| 2026-05-05 14:54 | 32.00550 | 106.90549 | 13003 ft | 154 kts | 31° |
| 2026-05-05 14:54 | 32.01474 | 106.91198 | 13042 ft | 156 kts | 30° |
| 2026-05-05 14:54 | 32.02411 | 106.91855 | 13028 ft | 157 kts | 30° |
| 2026-05-05 14:54 | 32.03350 | 106.92515 | 13023 ft | 157 kts | 31° |
| 2026-05-05 14:55 | 32.04288 | 106.93174 | 13019 ft | 157 kts | 31° |
| 2026-05-05 14:55 | 32.05227 | 106.93834 | 13028 ft | 158 kts | 31° |
| 2026-05-05 14:55 | 32.06165 | 106.94495 | 13012 ft | 156 kts | 31° |
| 2026-05-05 14:55 | 32.07035 | 106.95250 | 13019 ft | 155 kts | 47° |
| 2026-05-05 14:56 | 32.07743 | 106.96209 | 12995 ft | 154 kts | 52° |
| 2026-05-05 14:56 | 32.08470 | 106.97129 | 13009 ft | 153 kts | 48° |
| 2026-05-05 14:56 | 32.09213 | 106.98030 | 13010 ft | 153 kts | 49° |
| 2026-05-05 14:56 | 32.09957 | 106.98928 | 13019 ft | 153 kts | 48° |
| 2026-05-05 14:57 | 32.10704 | 106.99839 | 13052 ft | 156 kts | 50° |
| 2026-05-05 14:57 | 32.11450 | 107.00769 | 13041 ft | 156 kts | 48° |
| 2026-05-05 14:57 | 32.12201 | 107.01693 | 13018 ft | 155 kts | 49° |
| 2026-05-05 14:57 | 32.12939 | 107.02604 | 13021 ft | 153 kts | 49° |
| 2026-05-05 14:58 | 32.13674 | 107.03516 | 13036 ft | 154 kts | 49° |
| 2026-05-05 14:58 | 32.14412 | 107.04436 | 13032 ft | 155 kts | 49° |
| 2026-05-05 14:58 | 32.15154 | 107.05362 | 13026 ft | 155 kts | 49° |
| 2026-05-05 14:58 | 32.15899 | 107.06283 | 13029 ft | 156 kts | 49° |
| 2026-05-05 14:59 | 32.16631 | 107.07205 | 13031 ft | 153 kts | 48° |
| 2026-05-05 14:59 | 32.17359 | 107.08118 | 13034 ft | 153 kts | 49° |
| 2026-05-05 14:59 | 32.18088 | 107.09029 | 13043 ft | 153 kts | 48° |
| 2026-05-05 14:59 | 32.18826 | 107.09951 | 13049 ft | 156 kts | 48° |
| 2026-05-05 15:00 | 32.19574 | 107.10886 | 13071 ft | 158 kts | 49° |
| 2026-05-05 15:00 | 32.20073 | 107.11506 | 13089 ft | 157 kts | 50° |
| 2026-05-05 15:00 | 32.21093 | 107.12810 | 13086 ft | 162 kts | 48° |
| 2026-05-05 15:00 | 32.21874 | 107.13777 | 13105 ft | 163 kts | 47° |
| 2026-05-05 15:01 | 32.22656 | 107.14744 | 13067 ft | 161 kts | 48° |
| 2026-05-05 15:01 | 32.23417 | 107.15695 | 13047 ft | 158 kts | 48° |
| 2026-05-05 15:01 | 32.24166 | 107.16632 | 13049 ft | 157 kts | 48° |
| 2026-05-05 15:01 | 32.24912 | 107.17566 | 13055 ft | 156 kts | 47° |
| 2026-05-05 15:02 | 32.25658 | 107.18500 | 13055 ft | 157 kts | 47° |
| 2026-05-05 15:02 | 32.26432 | 107.19419 | 13057 ft | 158 kts | 44° |
| 2026-05-05 15:02 | 32.27255 | 107.20290 | 13048 ft | 159 kts | 41° |
| 2026-05-05 15:02 | 32.28078 | 107.21148 | 13040 ft | 157 kts | 41° |
| 2026-05-05 15:03 | 32.28899 | 107.22001 | 13050 ft | 157 kts | 41° |
| 2026-05-05 15:03 | 32.29715 | 107.22851 | 13053 ft | 156 kts | 41° |
| 2026-05-05 15:03 | 32.30530 | 107.23699 | 13052 ft | 156 kts | 41° |
| 2026-05-05 15:03 | 32.31345 | 107.24549 | 13054 ft | 156 kts | 41° |
| 2026-05-05 15:04 | 32.32158 | 107.25397 | 13048 ft | 156 kts | 41° |
| 2026-05-05 15:04 | 32.32968 | 107.26243 | 13050 ft | 156 kts | 41° |
| 2026-05-05 15:04 | 32.33781 | 107.27091 | 13054 ft | 156 kts | 41° |
| 2026-05-05 15:04 | 32.34593 | 107.27940 | 13054 ft | 156 kts | 41° |
| 2026-05-05 15:05 | 32.36222 | 107.29643 | 13054 ft | 157 kts | 41° |
| 2026-05-05 15:05 | 32.37038 | 107.30498 | 13058 ft | 156 kts | 42° |
| 2026-05-05 15:05 | 32.37854 | 107.31354 | 13057 ft | 157 kts | 41° |
| 2026-05-05 15:06 | 32.38682 | 107.32193 | 13049 ft | 156 kts | 37° |
| 2026-05-05 15:06 | 32.39517 | 107.33007 | 13048 ft | 155 kts | 37° |
| 2026-05-05 15:06 | 32.40343 | 107.33822 | 13053 ft | 154 kts | 38° |
| 2026-05-05 15:06 | 32.41157 | 107.34642 | 13054 ft | 153 kts | 39° |
| 2026-05-05 15:07 | 32.41963 | 107.35466 | 13068 ft | 154 kts | 39° |
| 2026-05-05 15:07 | 32.42774 | 107.36303 | 13075 ft | 156 kts | 39° |
| 2026-05-05 15:07 | 32.43594 | 107.37156 | 13061 ft | 156 kts | 39° |
| 2026-05-05 15:07 | 32.44405 | 107.38004 | 13055 ft | 155 kts | 39° |
| 2026-05-05 15:08 | 32.45214 | 107.38847 | 13052 ft | 155 kts | 39° |
| 2026-05-05 15:08 | 32.46022 | 107.39690 | 13050 ft | 155 kts | 39° |
| 2026-05-05 15:08 | 32.46819 | 107.40532 | 13039 ft | 152 kts | 38° |
| 2026-05-05 15:08 | 32.47597 | 107.41348 | 13018 ft | 149 kts | 36° |
| 2026-05-05 15:09 | 32.48363 | 107.42157 | 13007 ft | 147 kts | 38° |
| 2026-05-05 15:09 | 32.49114 | 107.42954 | 13005 ft | 143 kts | 38° |
| 2026-05-05 15:09 | 32.49874 | 107.43752 | 13036 ft | 149 kts | 38° |
| 2026-05-05 15:09 | 32.50662 | 107.44574 | 13008 ft | 152 kts | 38° |
| 2026-05-05 15:10 | 32.51458 | 107.45406 | 13014 ft | 155 kts | 38° |
| 2026-05-05 15:10 | 32.52270 | 107.46257 | 13012 ft | 157 kts | 39° |
| 2026-05-05 15:10 | 32.53094 | 107.47120 | 13003 ft | 160 kts | 37° |
| 2026-05-05 15:10 | 32.53924 | 107.47993 | 12992 ft | 158 kts | 38° |
| 2026-05-05 15:11 | 32.54744 | 107.48858 | 13001 ft | 158 kts | 38° |
| 2026-05-05 15:11 | 32.55552 | 107.49713 | 12998 ft | 154 kts | 38° |
| 2026-05-05 15:11 | 32.56351 | 107.50555 | 13009 ft | 153 kts | 38° |
| 2026-05-05 15:11 | 32.57151 | 107.51401 | 12979 ft | 152 kts | 39° |
| 2026-05-05 15:12 | 32.57941 | 107.52235 | 13013 ft | 153 kts | 38° |
| 2026-05-05 15:12 | 32.58748 | 107.53074 | 12991 ft | 155 kts | 37° |
| 2026-05-05 15:12 | 32.59559 | 107.53864 | 13153 ft | 152 kts | 34° |
| 2026-05-05 15:12 | 32.60380 | 107.54722 | 13075 ft | 160 kts | 40° |
| 2026-05-05 15:13 | 32.61178 | 107.55606 | 13012 ft | 152 kts | 39° |
| 2026-05-05 15:13 | 32.61946 | 107.56443 | 12970 ft | 149 kts | 39° |
| 2026-05-05 15:13 | 32.62718 | 107.57276 | 12989 ft | 151 kts | 38° |
| 2026-05-05 15:13 | 32.63518 | 107.58118 | 12990 ft | 155 kts | 37° |
| 2026-05-05 15:14 | 32.64319 | 107.58958 | 12982 ft | 153 kts | 38° |
| 2026-05-05 15:14 | 32.65118 | 107.59797 | 12981 ft | 154 kts | 38° |
| 2026-05-05 15:14 | 32.65910 | 107.60630 | 12993 ft | 152 kts | 38° |
| 2026-05-05 15:14 | 32.66699 | 107.61460 | 13008 ft | 152 kts | 38° |
| 2026-05-05 15:15 | 32.67499 | 107.62302 | 13016 ft | 155 kts | 38° |
| 2026-05-05 15:15 | 32.68298 | 107.63141 | 12966 ft | 152 kts | 38° |
| 2026-05-05 15:15 | 32.69086 | 107.63976 | 12996 ft | 153 kts | 38° |
| 2026-05-05 15:15 | 32.69879 | 107.64814 | 13002 ft | 153 kts | 38° |
| 2026-05-05 15:16 | 32.70681 | 107.65661 | 12996 ft | 153 kts | 38° |
| 2026-05-05 15:16 | 32.71475 | 107.66497 | 12996 ft | 153 kts | 38° |
| 2026-05-05 15:16 | 32.72266 | 107.67337 | 12987 ft | 153 kts | 36° |
| 2026-05-05 15:16 | 32.73056 | 107.68178 | 13019 ft | 154 kts | 39° |
| 2026-05-05 15:17 | 32.73865 | 107.69035 | 12993 ft | 156 kts | 37° |
| 2026-05-05 15:17 | 32.74671 | 107.69884 | 12973 ft | 153 kts | 37° |
| 2026-05-05 15:17 | 32.75453 | 107.70717 | 12916 ft | 148 kts | 39° |
| 2026-05-05 15:17 | 32.76208 | 107.71531 | 12928 ft | 144 kts | 39° |
| 2026-05-05 15:18 | 32.76959 | 107.72318 | 12963 ft | 145 kts | 38° |
| 2026-05-05 15:18 | 32.77724 | 107.73116 | 12996 ft | 148 kts | 38° |
| 2026-05-05 15:18 | 32.78505 | 107.73935 | 13003 ft | 152 kts | 38° |
| 2026-05-05 15:18 | 32.79299 | 107.74776 | 13002 ft | 151 kts | 38° |
| 2026-05-05 15:19 | 32.80086 | 107.75610 | 13002 ft | 151 kts | 38° |
| 2026-05-05 15:19 | 32.80863 | 107.76439 | 12988 ft | 150 kts | 38° |
| 2026-05-05 15:19 | 32.81632 | 107.77258 | 12986 ft | 147 kts | 39° |
| 2026-05-05 15:19 | 32.82396 | 107.78064 | 13000 ft | 147 kts | 38° |
| 2026-05-05 15:20 | 32.83162 | 107.78877 | 13012 ft | 149 kts | 39° |
| 2026-05-05 15:20 | 32.83938 | 107.79703 | 13008 ft | 151 kts | 39° |
| 2026-05-05 15:20 | 32.84719 | 107.80532 | 13003 ft | 151 kts | 38° |
| 2026-05-05 15:20 | 32.85501 | 107.81363 | 12996 ft | 151 kts | 38° |
| 2026-05-05 15:21 | 32.86280 | 107.82191 | 12976 ft | 149 kts | 39° |
| 2026-05-05 15:21 | 32.87050 | 107.83009 | 13001 ft | 149 kts | 38° |
| 2026-05-05 15:21 | 32.87826 | 107.83832 | 13006 ft | 150 kts | 39° |
| 2026-05-05 15:21 | 32.88607 | 107.84661 | 13002 ft | 151 kts | 39° |
| 2026-05-05 15:22 | 32.89388 | 107.85491 | 12995 ft | 150 kts | 39° |
| 2026-05-05 15:22 | 32.90168 | 107.86321 | 12998 ft | 151 kts | 39° |
| 2026-05-05 15:22 | 32.90948 | 107.87151 | 12975 ft | 149 kts | 40° |
| 2026-05-05 15:22 | 32.91719 | 107.87977 | 12984 ft | 149 kts | 39° |
| 2026-05-05 15:23 | 32.92492 | 107.88804 | 12992 ft | 150 kts | 39° |
| 2026-05-05 15:23 | 32.93275 | 107.89635 | 12997 ft | 151 kts | 39° |
| 2026-05-05 15:23 | 32.94063 | 107.90470 | 12988 ft | 152 kts | 39° |
| 2026-05-05 15:23 | 32.94851 | 107.91306 | 12991 ft | 152 kts | 39° |
| 2026-05-05 15:24 | 32.95372 | 107.91861 | 12987 ft | 152 kts | 39° |
| 2026-05-05 15:24 | 32.96418 | 107.92975 | 12986 ft | 150 kts | 39° |
| 2026-05-05 15:24 | 32.96933 | 107.93524 | 12990 ft | 150 kts | 39° |
| 2026-05-05 15:24 | 32.97713 | 107.94356 | 12989 ft | 150 kts | 39° |
| 2026-05-05 15:25 | 32.98494 | 107.95188 | 12992 ft | 151 kts | 39° |
| 2026-05-05 15:25 | 32.99277 | 107.96023 | 12992 ft | 151 kts | 39° |
| 2026-05-05 15:25 | 33.00066 | 107.96862 | 13017 ft | 154 kts | 39° |
| 2026-05-05 15:25 | 33.00867 | 107.97715 | 13005 ft | 155 kts | 39° |
| 2026-05-05 15:26 | 33.01669 | 107.98574 | 13003 ft | 155 kts | 39° |
| 2026-05-05 15:26 | 33.02470 | 107.99431 | 12988 ft | 154 kts | 39° |
| 2026-05-05 15:26 | 33.03268 | 108.00283 | 12992 ft | 154 kts | 39° |
| 2026-05-05 15:26 | 33.04065 | 108.01134 | 12984 ft | 153 kts | 39° |
| 2026-05-05 15:27 | 33.04857 | 108.01980 | 12982 ft | 153 kts | 40° |
| 2026-05-05 15:27 | 33.05641 | 108.02818 | 12977 ft | 150 kts | 39° |
| 2026-05-05 15:27 | 33.06416 | 108.03649 | 12978 ft | 150 kts | 39° |
| 2026-05-05 15:27 | 33.07191 | 108.04477 | 12989 ft | 150 kts | 39° |
| 2026-05-05 15:28 | 33.07970 | 108.05310 | 12994 ft | 151 kts | 39° |
| 2026-05-05 15:28 | 33.08752 | 108.06146 | 12991 ft | 151 kts | 39° |
| 2026-05-05 15:28 | 33.09535 | 108.06984 | 12993 ft | 151 kts | 39° |
| 2026-05-05 15:28 | 33.10318 | 108.07821 | 12994 ft | 152 kts | 39° |
| 2026-05-05 15:29 | 33.11102 | 108.08659 | 12984 ft | 151 kts | 39° |
| 2026-05-05 15:29 | 33.11884 | 108.09497 | 12987 ft | 151 kts | 39° |
| 2026-05-05 15:29 | 33.12668 | 108.10335 | 12982 ft | 151 kts | 40° |
| 2026-05-05 15:29 | 33.13447 | 108.11167 | 12986 ft | 151 kts | 40° |
| 2026-05-05 15:30 | 33.14227 | 108.12006 | 12987 ft | 152 kts | 40° |
| 2026-05-05 15:30 | 33.15014 | 108.12853 | 13002 ft | 153 kts | 40° |
| 2026-05-05 15:30 | 33.15812 | 108.13708 | 13000 ft | 155 kts | 40° |
| 2026-05-05 15:30 | 33.16612 | 108.14565 | 12980 ft | 153 kts | 40° |
| 2026-05-05 15:31 | 33.17406 | 108.15417 | 12984 ft | 153 kts | 40° |
| 2026-05-05 15:31 | 33.18198 | 108.16266 | 12994 ft | 153 kts | 40° |
| 2026-05-05 15:31 | 33.18992 | 108.17117 | 13003 ft | 154 kts | 40° |
| 2026-05-05 15:31 | 33.19791 | 108.17974 | 13007 ft | 155 kts | 40° |
| 2026-05-05 15:32 | 33.20592 | 108.18835 | 13007 ft | 155 kts | 40° |
| 2026-05-05 15:32 | 33.21397 | 108.19699 | 13002 ft | 156 kts | 40° |
| 2026-05-05 15:32 | 33.22198 | 108.20561 | 13000 ft | 155 kts | 40° |
| 2026-05-05 15:32 | 33.23002 | 108.21424 | 13003 ft | 155 kts | 40° |
| 2026-05-05 15:33 | 33.23807 | 108.22289 | 13001 ft | 156 kts | 42° |
| 2026-05-05 15:33 | 33.24613 | 108.23155 | 13010 ft | 157 kts | 40° |
| 2026-05-05 15:33 | 33.25423 | 108.24025 | 13001 ft | 156 kts | 40° |
| 2026-05-05 15:33 | 33.26227 | 108.24889 | 13000 ft | 155 kts | 40° |
| 2026-05-05 15:34 | 33.27027 | 108.25752 | 12996 ft | 155 kts | 40° |
| 2026-05-05 15:34 | 33.27807 | 108.26613 | 12881 ft | 149 kts | 42° |
| 2026-05-05 15:34 | 33.28545 | 108.27422 | 12930 ft | 143 kts | 39° |
| 2026-05-05 15:34 | 33.29300 | 108.28208 | 12959 ft | 144 kts | 39° |
| 2026-05-05 15:35 | 33.30045 | 108.28972 | 12940 ft | 139 kts | 38° |
| 2026-05-05 15:35 | 33.30763 | 108.29752 | 12974 ft | 141 kts | 41° |
| 2026-05-05 15:35 | 33.31490 | 108.30559 | 12994 ft | 144 kts | 40° |
| 2026-05-05 15:35 | 33.32302 | 108.31273 | 13011 ft | 146 kts | 25° |
| 2026-05-05 15:36 | 33.33211 | 108.31856 | 13024 ft | 150 kts | 23° |
| 2026-05-05 15:36 | 33.34153 | 108.32430 | 13020 ft | 153 kts | 22° |
| 2026-05-05 15:36 | 33.35114 | 108.33006 | 13023 ft | 155 kts | 22° |
| 2026-05-05 15:36 | 33.36079 | 108.33582 | 13013 ft | 155 kts | 21° |
| 2026-05-05 15:37 | 33.37044 | 108.34155 | 13019 ft | 155 kts | 21° |
| 2026-05-05 15:37 | 33.38008 | 108.34734 | 13024 ft | 155 kts | 21° |
| 2026-05-05 15:37 | 33.38973 | 108.35310 | 13014 ft | 155 kts | 21° |
| 2026-05-05 15:37 | 33.39935 | 108.35886 | 13012 ft | 154 kts | 21° |
| 2026-05-05 15:38 | 33.40890 | 108.36465 | 13016 ft | 154 kts | 21° |
| 2026-05-05 15:38 | 33.41852 | 108.37031 | 13008 ft | 154 kts | 21° |
| 2026-05-05 15:38 | 33.42811 | 108.37600 | 13017 ft | 154 kts | 21° |
| 2026-05-05 15:38 | 33.43771 | 108.38173 | 13009 ft | 153 kts | 21° |
| 2026-05-05 15:39 | 33.44731 | 108.38746 | 13042 ft | 156 kts | 21° |
| 2026-05-05 15:39 | 33.45705 | 108.39328 | 13018 ft | 156 kts | 21° |
| 2026-05-05 15:39 | 33.46672 | 108.39908 | 13018 ft | 155 kts | 21° |
| 2026-05-05 15:39 | 33.47636 | 108.40486 | 13026 ft | 157 kts | 21° |
| 2026-05-05 15:40 | 33.48604 | 108.41065 | 13019 ft | 156 kts | 21° |
| 2026-05-05 15:40 | 33.49571 | 108.41643 | 13011 ft | 154 kts | 21° |
| 2026-05-05 15:40 | 33.50531 | 108.42217 | 13035 ft | 155 kts | 21° |
| 2026-05-05 15:40 | 33.51504 | 108.42799 | 13031 ft | 156 kts | 21° |
| 2026-05-05 15:41 | 33.52471 | 108.43378 | 13028 ft | 155 kts | 21° |
| 2026-05-05 15:41 | 33.53433 | 108.43957 | 13027 ft | 154 kts | 21° |
| 2026-05-05 15:41 | 33.54382 | 108.44539 | 12998 ft | 151 kts | 21° |
| 2026-05-05 15:41 | 33.55317 | 108.45090 | 13004 ft | 149 kts | 20° |
| 2026-05-05 15:42 | 33.56246 | 108.45638 | 13020 ft | 149 kts | 20° |
| 2026-05-05 15:42 | 33.57175 | 108.46193 | 13007 ft | 148 kts | 20° |
| 2026-05-05 15:42 | 33.58094 | 108.46734 | 13044 ft | 147 kts | 19° |
| 2026-05-05 15:42 | 33.59021 | 108.47289 | 13039 ft | 151 kts | 20° |
| 2026-05-05 15:43 | 33.59962 | 108.47870 | 13017 ft | 153 kts | 19° |
| 2026-05-05 15:43 | 33.60908 | 108.48444 | 13030 ft | 152 kts | 20° |
| 2026-05-05 15:43 | 33.61862 | 108.49012 | 13045 ft | 154 kts | 19° |
| 2026-05-05 15:43 | 33.62825 | 108.49585 | 13007 ft | 153 kts | 20° |
| 2026-05-05 15:44 | 33.63774 | 108.50156 | 13002 ft | 152 kts | 19° |
| 2026-05-05 15:44 | 33.64717 | 108.50729 | 13012 ft | 152 kts | 21° |
| 2026-05-05 15:44 | 33.65661 | 108.51298 | 13001 ft | 151 kts | 20° |
| 2026-05-05 15:44 | 33.66595 | 108.51858 | 12996 ft | 149 kts | 20° |
| 2026-05-05 15:45 | 33.67532 | 108.52418 | 13033 ft | 152 kts | 20° |
| 2026-05-05 15:45 | 33.68484 | 108.52986 | 13010 ft | 153 kts | 21° |
| 2026-05-05 15:45 | 33.69434 | 108.53556 | 13007 ft | 152 kts | 21° |
| 2026-05-05 15:45 | 33.70371 | 108.54119 | 13007 ft | 150 kts | 21° |
| 2026-05-05 15:46 | 33.71282 | 108.54687 | 12963 ft | 145 kts | 20° |
| 2026-05-05 15:46 | 33.72189 | 108.55226 | 12984 ft | 147 kts | 19° |
| 2026-05-05 15:46 | 33.73116 | 108.55771 | 12970 ft | 149 kts | 20° |
| 2026-05-05 15:46 | 33.74021 | 108.56319 | 12958 ft | 146 kts | 19° |
| 2026-05-05 15:47 | 33.74932 | 108.56860 | 12986 ft | 147 kts | 20° |
| 2026-05-05 15:47 | 33.75554 | 108.57231 | 12988 ft | 148 kts | 21° |
| 2026-05-05 15:47 | 33.76781 | 108.57962 | 12963 ft | 148 kts | 20° |
| 2026-05-05 15:47 | 33.77690 | 108.58515 | 12970 ft | 146 kts | 20° |
| 2026-05-05 15:48 | 33.78599 | 108.59064 | 12996 ft | 147 kts | 20° |
| 2026-05-05 15:48 | 33.79522 | 108.59617 | 13013 ft | 150 kts | 20° |
| 2026-05-05 15:48 | 33.80460 | 108.60184 | 12995 ft | 150 kts | 20° |
| 2026-05-05 15:48 | 33.81402 | 108.60749 | 12996 ft | 152 kts | 20° |
| 2026-05-05 15:49 | 33.82351 | 108.61313 | 12974 ft | 152 kts | 20° |
| 2026-05-05 15:49 | 33.83284 | 108.61875 | 12963 ft | 148 kts | 20° |
| 2026-05-05 15:49 | 33.84202 | 108.62429 | 12962 ft | 147 kts | 19° |
| 2026-05-05 15:49 | 33.85094 | 108.62965 | 12957 ft | 142 kts | 20° |
| 2026-05-05 15:50 | 33.85983 | 108.63496 | 12986 ft | 144 kts | 20° |
| 2026-05-05 15:50 | 33.86879 | 108.64037 | 12963 ft | 144 kts | 19° |
| 2026-05-05 15:50 | 33.87769 | 108.64574 | 12981 ft | 143 kts | 20° |
| 2026-05-05 15:50 | 33.88666 | 108.65114 | 12974 ft | 145 kts | 20° |
| 2026-05-05 15:51 | 33.89563 | 108.65653 | 12970 ft | 144 kts | 19° |
| 2026-05-05 15:51 | 33.90462 | 108.66194 | 12961 ft | 145 kts | 21° |
| 2026-05-05 15:51 | 33.91361 | 108.66735 | 12930 ft | 143 kts | 21° |
| 2026-05-05 15:51 | 33.92247 | 108.67268 | 12954 ft | 143 kts | 20° |
| 2026-05-05 15:52 | 33.93140 | 108.67806 | 12929 ft | 145 kts | 20° |
| 2026-05-05 15:52 | 33.94057 | 108.68357 | 12872 ft | 150 kts | 20° |
| 2026-05-05 15:52 | 33.94995 | 108.68921 | 12745 ft | 150 kts | 21° |
| 2026-05-05 15:52 | 33.95927 | 108.69483 | 12658 ft | 152 kts | 20° |
| 2026-05-05 15:53 | 33.96883 | 108.70057 | 12585 ft | 155 kts | 22° |
| 2026-05-05 15:53 | 33.97849 | 108.70644 | 12507 ft | 156 kts | 21° |
| 2026-05-05 15:53 | 33.98835 | 108.71241 | 12371 ft | 161 kts | 21° |
| 2026-05-05 15:53 | 33.99828 | 108.71846 | 12099 ft | 158 kts | 22° |
| 2026-05-05 15:54 | 34.00806 | 108.72448 | 11847 ft | 157 kts | 22° |
| 2026-05-05 15:54 | 34.01774 | 108.73045 | 11516 ft | 153 kts | 22° |
| 2026-05-05 15:54 | 34.02718 | 108.73630 | 11180 ft | 153 kts | 21° |
| 2026-05-05 15:54 | 34.03675 | 108.74211 | 10851 ft | 156 kts | 21° |
| 2026-05-05 15:55 | 34.04646 | 108.74790 | 10624 ft | 153 kts | 22° |
| 2026-05-05 15:55 | 34.05615 | 108.75355 | 10487 ft | 158 kts | 21° |
| 2026-05-05 15:55 | 34.06618 | 108.75937 | 10389 ft | 160 kts | 21° |
| 2026-05-05 15:55 | 34.07618 | 108.76525 | 10324 ft | 160 kts | 22° |
| 2026-05-05 15:56 | 34.08619 | 108.77119 | 10234 ft | 160 kts | 22° |
| 2026-05-05 15:56 | 34.09621 | 108.77716 | 10163 ft | 161 kts | 22° |
| 2026-05-05 15:56 | 34.10622 | 108.78313 | 10087 ft | 161 kts | 22° |
| 2026-05-05 15:56 | 34.11626 | 108.78913 | 10015 ft | 161 kts | 22° |
| 2026-05-05 15:57 | 34.12628 | 108.79512 | 9947 ft | 161 kts | 22° |
| 2026-05-05 15:57 | 34.13632 | 108.80112 | 9879 ft | 161 kts | 22° |
| 2026-05-05 15:57 | 34.14637 | 108.80713 | 9810 ft | 161 kts | 22° |
| 2026-05-05 15:57 | 34.15643 | 108.81312 | 9740 ft | 161 kts | 22° |
| 2026-05-05 15:58 | 34.16652 | 108.81915 | 9671 ft | 162 kts | 22° |
| 2026-05-05 15:58 | 34.17659 | 108.82518 | 9590 ft | 162 kts | 22° |
| 2026-05-05 15:58 | 34.18670 | 108.83125 | 9515 ft | 162 kts | 22° |
| 2026-05-05 15:58 | 34.19681 | 108.83730 | 9437 ft | 162 kts | 22° |
| 2026-05-05 15:59 | 34.20690 | 108.84334 | 9362 ft | 162 kts | 22° |
| 2026-05-05 15:59 | 34.21740 | 108.84749 | 9292 ft | 157 kts | 357° |
| 2026-05-05 15:59 | 34.22769 | 108.84500 | 9219 ft | 147 kts | 326° |
| 2026-05-05 15:59 | 34.23587 | 108.83811 | 9141 ft | 142 kts | 310° |
| 2026-05-05 16:00 | 34.24315 | 108.83006 | 9063 ft | 142 kts | 308° |
| 2026-05-05 16:00 | 34.25036 | 108.82189 | 8982 ft | 142 kts | 308° |
| 2026-05-05 16:00 | 34.25766 | 108.81379 | 8907 ft | 143 kts | 309° |
| 2026-05-05 16:00 | 34.26502 | 108.80575 | 8832 ft | 143 kts | 309° |
| 2026-05-05 16:01 | 34.27244 | 108.79774 | 8759 ft | 143 kts | 310° |
| 2026-05-05 16:01 | 34.27987 | 108.78977 | 8686 ft | 143 kts | 310° |
| 2026-05-05 16:01 | 34.28734 | 108.78176 | 8611 ft | 144 kts | 310° |
| 2026-05-05 16:01 | 34.29337 | 108.77254 | 8552 ft | 138 kts | 286° |
| 2026-05-05 16:02 | 34.29712 | 108.76196 | 8371 ft | 131 kts | 289° |
| 2026-05-05 16:02 | 34.30168 | 108.75225 | 7769 ft | 140 kts | 299° |
| 2026-05-05 16:02 | 34.30764 | 108.74274 | 7096 ft | 142 kts | 301° |
| 2026-05-05 16:02 | 34.31409 | 108.73331 | 6345 ft | 147 kts | 305° |
| 2026-05-05 16:03 | 34.32182 | 108.72448 | 5486 ft | 157 kts | 317° |
| 2026-05-05 16:03 | 34.33093 | 108.71810 | 5076 ft | 140 kts | 332° |
| 2026-05-05 16:03 | 34.33978 | 108.71397 | 4867 ft | 144 kts | 336° |
| 2026-05-05 16:03 | 34.34940 | 108.70962 | 4811 ft | 149 kts | 336° |
| 2026-05-05 16:04 | 34.35921 | 108.70568 | 4792 ft | 150 kts | 340° |
| 2026-05-05 16:04 | 34.36974 | 108.70225 | 4489 ft | 155 kts | 346° |
| 2026-05-05 16:04 | 34.37963 | 108.70066 | 4278 ft | 135 kts | 356° |
| 2026-05-05 16:04 | 34.38862 | 108.70051 | 3989 ft | 124 kts | 1° |
| 2026-05-05 16:05 | 34.39453 | 108.70079 | 3652 ft | 129 kts | 5° |
| 2026-05-05 16:05 | 34.40685 | 108.70285 | 2862 ft | 127 kts | 17° |
| 2026-05-05 16:05 | 34.41411 | 108.70775 | 2432 ft | 116 kts | 34° |
| 2026-05-05 16:05 | 34.41955 | 108.71418 | 2220 ft | 104 kts | 43° |
| 2026-05-05 16:06 | 34.42270 | 108.71853 | 2113 ft | 101 kts | 45° |
| 2026-05-05 16:06 | 34.42724 | 108.72487 | 1928 ft | 99 kts | 46° |
| 2026-05-05 16:06 | 34.43169 | 108.73099 | 1787 ft | 94 kts | 45° |
| 2026-05-05 16:06 | 34.43556 | 108.73654 | 1645 ft | 82 kts | 44° |
| 2026-05-05 16:07 | 34.43910 | 108.74137 | 1573 ft | 67 kts | 44° |
| 2026-05-05 16:07 | 34.44152 | 108.74460 | 1566 ft | 40 kts | 47° |
| 2026-05-05 16:07 | 34.44299 | 108.74656 | 1568 ft | 25 kts | 48° |
| 2026-05-05 16:07 | 34.44407 | 108.74797 | 1569 ft | 21 kts | 48° |
| 2026-05-05 16:08 | 34.44492 | 108.74927 | 1571 ft | 19 kts | 56° |
| 2026-05-05 16:08 | 34.44564 | 108.75043 | 1570 ft | 13 kts | 50° |
| 2026-05-05 16:08 | 34.44649 | 108.75162 | 1570 ft | 23 kts | 50° |
| 2026-05-05 16:08 | 34.44748 | 108.75328 | 1568 ft | 22 kts | 69° |
| 2026-05-05 16:09 | 34.44696 | 108.75454 | 1569 ft | 18 kts | 142° |
| 2026-05-05 16:09 | 34.44587 | 108.75562 | 1570 ft | 22 kts | 139° |
| 2026-05-05 16:09 | 34.44484 | 108.75665 | 1570 ft | 16 kts | 140° |
| 2026-05-05 16:09 | 34.44413 | 108.75745 | 1570 ft | 3 kts | 135° |
| 2026-05-05 16:10 | 34.44404 | 108.75755 | 1570 ft | 0 kts | 139° |